createdAt,value
2023-03-10T00:01:22.281Z,98517.72
2023-03-10T00:03:51.050Z,98522.72
2023-03-10T00:06:21.453Z,98509.84
2023-03-10T00:08:50.156Z,98508.81
2023-03-10T00:11:20.680Z,98501.88
2023-03-10T00:13:50.115Z,98460.84
2023-03-10T00:16:20.739Z,98465.75
2023-03-10T00:18:49.184Z,98486.09
2023-03-10T00:21:19.009Z,98477.25
2023-03-10T00:23:47.125Z,98429.41
2023-03-10T00:26:19.534Z,98442.94
2023-03-10T00:28:47.905Z,98451.13
2023-03-10T00:31:19.008Z,98455.25
2023-03-10T00:33:47.574Z,98447.59
2023-03-10T00:36:18.188Z,98445.88
2023-03-10T00:38:50.629Z,98444.00
2023-03-10T00:41:20.799Z,98436.94
2023-03-10T00:43:49.957Z,98436.06
2023-03-10T00:46:20.055Z,98424.75
2023-03-10T00:48:48.171Z,98404.31
2023-03-10T00:51:16.519Z,98415.25
2023-03-10T00:53:44.639Z,98415.06
2023-03-10T00:56:14.697Z,98399.72
2023-03-10T00:58:43.282Z,98413.38
2023-03-10T01:01:15.119Z,98367.97
2023-03-10T01:03:45.044Z,98402.81
2023-03-10T01:06:15.710Z,98389.78
2023-03-10T01:08:46.749Z,98369.22
2023-03-10T01:11:18.375Z,98383.72
2023-03-10T01:13:47.109Z,98358.78
2023-03-10T01:16:15.122Z,98373.06
2023-03-10T01:18:47.318Z,98334.59
2023-03-10T01:21:19.045Z,98350.66
2023-03-10T01:23:47.025Z,98350.56
2023-03-10T01:26:18.686Z,98320.09
2023-03-10T01:28:48.037Z,98327.25
2023-03-10T01:31:17.294Z,98336.56
2023-03-10T01:33:47.433Z,98324.41
2023-03-10T01:36:18.277Z,98295.97
2023-03-10T01:38:48.928Z,98301.88
2023-03-10T01:41:18.309Z,98277.72
2023-03-10T01:43:52.015Z,98266.56
2023-03-10T01:46:45.542Z,98278.09
2023-03-10T01:49:26.951Z,98265.38
2023-03-10T01:52:01.141Z,98272.97
2023-03-10T01:54:34.621Z,98259.91
2023-03-10T01:57:02.821Z,98255.63
2023-03-10T01:59:31.063Z,98251.97
2023-03-10T02:02:01.233Z,98248.44
2023-03-10T02:04:36.361Z,98244.09
2023-03-10T02:07:07.038Z,98216.25
2023-03-10T02:09:38.363Z,98233.72
2023-03-10T02:12:07.286Z,98228.69
2023-03-10T02:14:36.577Z,98215.50
2023-03-10T02:17:06.230Z,98217.16
2023-03-10T02:19:50.571Z,98218.66
2023-03-10T02:22:18.561Z,98212.72
2023-03-10T02:24:52.298Z,98202.97
2023-03-10T02:27:31.199Z,98202.00
2023-03-10T02:30:05.669Z,98187.34
2023-03-10T02:32:40.821Z,98169.22
2023-03-10T02:35:10.073Z,98172.63
2023-03-10T02:37:45.131Z,98163.38
2023-03-10T02:40:40.181Z,98157.78
2023-03-10T02:43:19.865Z,98164.56
2023-03-10T02:45:52.460Z,98152.47
2023-03-10T02:48:28.165Z,98144.53
2023-03-10T02:50:58.770Z,98145.69
2023-03-10T02:54:05.748Z,98149.16
2023-03-10T02:56:35.567Z,98118.75
2023-03-10T02:59:06.591Z,98138.69
2023-03-10T03:01:36.846Z,98126.28
2023-03-10T03:04:07.698Z,98104.41
2023-03-10T03:06:35.668Z,98096.69
2023-03-10T03:09:03.836Z,98098.66
2023-03-10T03:11:32.525Z,98095.91
2023-03-10T03:14:00.624Z,98087.09
2023-03-10T03:16:32.836Z,98080.94
2023-03-10T03:19:05.080Z,98067.25
2023-03-10T03:21:33.109Z,98063.72
2023-03-10T03:24:05.089Z,98064.53
2023-03-10T03:26:33.111Z,98064.41
2023-03-10T03:29:12.014Z,98058.34
2023-03-10T03:31:42.013Z,98053.97
2023-03-10T03:34:15.533Z,98047.88
2023-03-10T03:36:44.472Z,98038.63
2023-03-10T03:39:17.340Z,98030.66
2023-03-10T03:41:49.021Z,98018.56
2023-03-10T03:44:17.363Z,97996.28
2023-03-10T03:46:46.837Z,98029.25
2023-03-10T03:49:16.101Z,98022.34
2023-03-10T03:51:44.755Z,98022.22
2023-03-10T03:54:12.909Z,98018.75
2023-03-10T03:56:46.590Z,98016.13
2023-03-10T03:59:16.597Z,98004.84
2023-03-10T04:01:46.408Z,98020.94
2023-03-10T04:04:16.960Z,98016.63
2023-03-10T04:06:44.911Z,98017.41
2023-03-10T04:09:13.732Z,98018.31
2023-03-10T04:11:46.011Z,97991.53
2023-03-10T04:14:14.050Z,98011.22
2023-03-10T04:16:46.548Z,98001.59
2023-03-10T04:19:14.896Z,97984.63
2023-03-10T04:21:49.362Z,98010.19
2023-03-10T04:24:17.855Z,98015.66
2023-03-10T04:26:46.172Z,98017.13
2023-03-10T04:29:17.800Z,98019.69
2023-03-10T04:32:04.062Z,97996.38
2023-03-10T04:34:34.324Z,97996.38
2023-03-10T04:37:03.044Z,98003.84
2023-03-10T04:39:34.474Z,98019.41
2023-03-10T04:42:02.454Z,98003.78
2023-03-10T04:44:32.721Z,97998.50
2023-03-10T04:47:05.080Z,98009.22
2023-03-10T04:49:33.322Z,97996.66
2023-03-10T04:52:02.040Z,98006.34
2023-03-10T04:54:30.480Z,98011.63
2023-03-10T04:57:01.422Z,98033.97
2023-03-10T04:59:29.551Z,98023.56
2023-03-10T05:01:57.553Z,98020.38
2023-03-10T05:04:26.858Z,98037.38
2023-03-10T05:06:56.382Z,98039.84
2023-03-10T05:09:29.141Z,98030.44
2023-03-10T05:11:59.067Z,98043.88
2023-03-10T05:14:30.770Z,98035.91
2023-03-10T05:16:59.102Z,98047.91
2023-03-10T05:19:29.225Z,98046.13
2023-03-10T05:21:59.621Z,98049.53
2023-03-10T05:24:28.391Z,98042.72
2023-03-10T05:26:56.310Z,98052.22
2023-03-10T05:29:25.817Z,98060.56
2023-03-10T05:31:59.102Z,98059.66
2023-03-10T05:34:33.673Z,98057.31
2023-03-10T05:37:04.220Z,98066.50
2023-03-10T05:39:32.367Z,98053.78
2023-03-10T05:42:03.649Z,98065.53
2023-03-10T05:44:37.726Z,98069.75
2023-03-10T05:47:07.855Z,98060.78
2023-03-10T05:49:38.862Z,98061.63
2023-03-10T05:52:08.315Z,98067.91
2023-03-10T05:54:37.951Z,98081.56
2023-03-10T05:57:06.867Z,98083.41
2023-03-10T05:59:34.803Z,98077.25
2023-03-10T06:02:02.817Z,98068.13
2023-03-10T06:04:33.151Z,98077.53
2023-03-10T06:07:03.249Z,98083.00
2023-03-10T06:09:33.082Z,98069.97
2023-03-10T06:12:04.019Z,98098.41
2023-03-10T06:14:31.921Z,98098.25
2023-03-10T06:16:59.918Z,98095.72
2023-03-10T06:19:27.950Z,98101.72
2023-03-10T06:21:56.021Z,98094.81
2023-03-10T06:24:25.318Z,98112.97
2023-03-10T06:26:55.815Z,98111.13
2023-03-10T06:29:31.041Z,98103.84
2023-03-10T06:32:01.801Z,98124.91
2023-03-10T06:34:30.913Z,98128.38
2023-03-10T06:36:58.860Z,98131.78
2023-03-10T06:39:29.209Z,98130.72
2023-03-10T06:41:57.127Z,98110.34
2023-03-10T06:44:25.144Z,98134.19
2023-03-10T06:46:53.015Z,98146.25
2023-03-10T06:49:20.966Z,98125.78
2023-03-10T06:51:48.846Z,98149.97
2023-03-10T06:54:20.982Z,98130.44
2023-03-10T06:56:50.485Z,98150.69
2023-03-10T06:59:18.630Z,98159.19
2023-03-10T07:01:47.162Z,98119.28
2023-03-10T07:04:15.998Z,98158.31
2023-03-10T07:06:46.266Z,98159.97
2023-03-10T07:09:17.009Z,98155.69
2023-03-10T07:11:44.880Z,98160.66
2023-03-10T07:14:14.228Z,98173.34
2023-03-10T07:16:42.304Z,98166.41
2023-03-10T07:19:10.289Z,98142.34
2023-03-10T07:21:38.386Z,98159.47
2023-03-10T07:24:08.760Z,98144.81
2023-03-10T07:26:37.280Z,98150.69
2023-03-10T07:29:05.345Z,98109.50
2023-03-10T07:31:37.884Z,98185.78
2023-03-10T07:34:05.956Z,98106.25
2023-03-10T07:36:33.966Z,98180.56
2023-03-10T07:39:04.034Z,98188.47
2023-03-10T07:41:32.066Z,98189.63
2023-03-10T07:43:59.980Z,98182.75
2023-03-10T07:46:28.045Z,98193.84
2023-03-10T07:49:00.324Z,98180.28
2023-03-10T07:51:28.508Z,98200.38
2023-03-10T07:53:56.427Z,98207.09
2023-03-10T07:56:27.123Z,98193.38
2023-03-10T07:58:59.755Z,98206.59
2023-03-10T08:01:28.350Z,98184.38
2023-03-10T08:03:58.321Z,98208.44
2023-03-10T08:06:28.386Z,98219.91
2023-03-10T08:08:57.563Z,98219.06
2023-03-10T08:11:25.742Z,98212.09
2023-03-10T08:13:53.951Z,98189.91
2023-03-10T08:16:23.356Z,98232.09
2023-03-10T08:18:52.135Z,98219.34
2023-03-10T08:21:21.675Z,98218.59
2023-03-10T08:23:49.750Z,98226.97
2023-03-10T08:26:19.315Z,98249.22
2023-03-10T08:28:48.194Z,98233.28
2023-03-10T08:31:17.767Z,98252.88
2023-03-10T08:33:48.019Z,98245.88
2023-03-10T08:36:18.261Z,98224.84
2023-03-10T08:38:48.703Z,98231.34
2023-03-10T08:41:20.220Z,98235.72
2023-03-10T08:43:49.547Z,98220.72
2023-03-10T08:46:19.013Z,98204.84
2023-03-10T08:48:49.237Z,98233.09
2023-03-10T08:51:17.869Z,98221.81
2023-03-10T08:53:47.683Z,98239.56
2023-03-10T08:56:18.600Z,98239.75
2023-03-10T08:58:46.922Z,98225.28
2023-03-10T09:01:19.056Z,98236.81
2023-03-10T09:03:50.523Z,98235.28
2023-03-10T09:06:18.862Z,98251.94
2023-03-10T09:08:48.261Z,98266.09
2023-03-10T09:11:20.100Z,98230.97
2023-03-10T09:13:48.180Z,98254.28
2023-03-10T09:16:16.655Z,98251.75
2023-03-10T09:18:45.033Z,98248.09
2023-03-10T09:21:18.712Z,98251.50
2023-03-10T09:23:52.729Z,98255.34
2023-03-10T09:26:25.641Z,98264.53
2023-03-10T09:28:57.444Z,98258.59
2023-03-10T09:31:30.796Z,98248.94
2023-03-10T09:34:00.889Z,98261.47
2023-03-10T09:36:30.149Z,98239.91
2023-03-10T09:38:58.768Z,98236.34
2023-03-10T09:42:06.532Z,98253.66
2023-03-10T09:44:42.802Z,98251.34
2023-03-10T09:47:27.667Z,98244.63
2023-03-10T09:50:11.318Z,98265.53
2023-03-10T09:52:46.036Z,98250.00
2023-03-10T09:55:21.936Z,98253.66
2023-03-10T09:57:55.095Z,98237.44
2023-03-10T10:00:27.873Z,98240.66
2023-03-10T10:03:03.475Z,98250.25
2023-03-10T10:05:34.975Z,98272.88
2023-03-10T10:08:14.075Z,98245.72
2023-03-10T10:10:43.352Z,98263.38
2023-03-10T10:13:16.510Z,98273.72
2023-03-10T10:15:51.253Z,98270.00
2023-03-10T10:18:28.667Z,98272.81
2023-03-10T10:21:00.912Z,98269.72
2023-03-10T10:23:39.381Z,98260.97
2023-03-10T10:26:12.766Z,98284.81
2023-03-10T10:28:44.933Z,98284.81
2023-03-10T10:31:16.618Z,98283.31
2023-03-10T10:33:56.804Z,98268.06
2023-03-10T10:36:29.228Z,98279.66
2023-03-10T10:38:58.852Z,98285.63
2023-03-10T10:41:29.349Z,98266.72
2023-03-10T10:44:01.165Z,98265.00
2023-03-10T10:46:30.775Z,98282.06
2023-03-10T10:49:04.729Z,98283.91
2023-03-10T10:51:35.978Z,98267.63
2023-03-10T10:54:06.468Z,98290.31
2023-03-10T10:56:34.996Z,98263.59
2023-03-10T10:59:07.497Z,98283.38
2023-03-10T11:01:51.259Z,98284.22
2023-03-10T11:04:20.081Z,98278.81
2023-03-10T11:06:48.849Z,98271.19
2023-03-10T11:09:18.264Z,98270.03
2023-03-10T11:11:57.283Z,98280.44
2023-03-10T11:14:39.904Z,98273.25
2023-03-10T11:17:14.159Z,98272.78
2023-03-10T11:19:57.249Z,98285.09
2023-03-10T11:22:35.165Z,98265.53
2023-03-10T11:25:08.682Z,98285.38
2023-03-10T11:27:49.681Z,98273.25
2023-03-10T11:30:26.141Z,98284.78
2023-03-10T11:33:07.550Z,98278.56
2023-03-10T11:35:43.784Z,98251.03
2023-03-10T11:38:28.525Z,98279.91
2023-03-10T11:41:00.333Z,98219.84
2023-03-10T11:43:35.075Z,98271.56
2023-03-10T11:46:11.467Z,98275.94
2023-03-10T11:49:03.124Z,98261.69
2023-03-10T11:51:36.312Z,98253.88
2023-03-10T11:54:11.567Z,98242.25
2023-03-10T11:56:40.717Z,98252.84
2023-03-10T11:59:14.096Z,98238.91
2023-03-10T12:01:47.363Z,98246.34
2023-03-10T12:04:22.753Z,98245.63
2023-03-10T12:06:56.028Z,98248.69
2023-03-10T12:09:33.391Z,98235.97
2023-03-10T12:12:04.673Z,98235.28
2023-03-10T12:14:33.372Z,98249.34
2023-03-10T12:17:05.357Z,98238.84
2023-03-10T12:19:33.270Z,98260.47
2023-03-10T12:22:24.213Z,98260.59
2023-03-10T12:24:53.000Z,98255.84
2023-03-10T12:27:21.178Z,98241.69
2023-03-10T12:29:49.424Z,98270.25
2023-03-10T12:32:47.215Z,98281.28
2023-03-10T12:35:33.821Z,98267.19
2023-03-10T12:38:31.636Z,98263.84
2023-03-10T12:41:01.095Z,98270.78
2023-03-10T12:44:02.657Z,98270.00
2023-03-10T12:46:48.526Z,98267.38
2023-03-10T12:49:30.171Z,98240.22
2023-03-10T12:52:19.078Z,98258.59
2023-03-10T12:54:55.925Z,98265.84
2023-03-10T12:57:32.009Z,98234.53
2023-03-10T13:00:06.572Z,98250.78
2023-03-10T13:02:40.232Z,98248.38
2023-03-10T13:05:22.378Z,98235.63
2023-03-10T13:07:54.026Z,98265.84
2023-03-10T13:10:24.490Z,98243.75
2023-03-10T13:12:56.140Z,98243.63
2023-03-10T13:15:26.187Z,98248.84
2023-03-10T13:17:55.552Z,98260.91
2023-03-10T13:20:25.486Z,98255.97
2023-03-10T13:22:55.270Z,98250.47
2023-03-10T13:25:23.708Z,98199.31
2023-03-10T13:27:52.694Z,98233.25
2023-03-10T13:30:22.362Z,98241.56
2023-03-10T13:32:54.410Z,98232.56
2023-03-10T13:35:26.686Z,98230.56
2023-03-10T13:38:11.266Z,98243.63
2023-03-10T13:40:42.062Z,98226.31
2023-03-10T13:43:28.637Z,98235.44
2023-03-10T13:45:57.122Z,98233.91
2023-03-10T13:48:27.220Z,98210.13
2023-03-10T13:51:20.940Z,98245.34
2023-03-10T13:53:52.575Z,98237.91
2023-03-10T13:56:24.328Z,98231.81
2023-03-10T13:58:54.462Z,98250.25
2023-03-10T14:01:25.235Z,98237.75
2023-03-10T14:03:55.657Z,98244.06
2023-03-10T14:06:26.497Z,98233.41
2023-03-10T14:08:55.020Z,98246.47
2023-03-10T14:11:25.790Z,98254.28
2023-03-10T14:13:53.749Z,98258.59
2023-03-10T14:16:21.707Z,98248.41
2023-03-10T14:18:49.616Z,98253.03
2023-03-10T14:21:30.765Z,98247.09
2023-03-10T14:24:03.986Z,98245.41
2023-03-10T14:26:32.574Z,98240.59
2023-03-10T14:29:03.900Z,98202.25
2023-03-10T14:31:31.831Z,98249.41
2023-03-10T14:33:59.763Z,98211.03
2023-03-10T14:36:29.634Z,98251.22
2023-03-10T14:38:57.573Z,98226.03
2023-03-10T14:41:26.489Z,98219.69
2023-03-10T14:43:54.563Z,98238.34
2023-03-10T14:46:22.836Z,98238.66
2023-03-10T14:48:51.062Z,98229.66
2023-03-10T14:51:34.652Z,98212.06
2023-03-10T14:54:05.029Z,98208.75
2023-03-10T14:56:34.276Z,98213.47
2023-03-10T14:59:02.865Z,98229.09
2023-03-10T15:01:32.990Z,98221.53
2023-03-10T15:04:01.036Z,98201.97
2023-03-10T15:06:28.964Z,98233.13
2023-03-10T15:08:56.893Z,98189.53
2023-03-10T15:11:36.837Z,98223.56
2023-03-10T15:14:07.328Z,98195.59
2023-03-10T15:16:35.252Z,98232.13
2023-03-10T15:19:03.311Z,98214.78
2023-03-10T15:21:31.214Z,98222.66
2023-03-10T15:23:59.375Z,98209.22
2023-03-10T15:26:28.712Z,98220.09
2023-03-10T15:28:56.657Z,98206.44
2023-03-10T15:31:24.750Z,98203.50
2023-03-10T15:33:52.796Z,98197.22
2023-03-10T15:36:23.774Z,98215.06
2023-03-10T15:38:53.270Z,98149.56
2023-03-10T15:41:21.286Z,98224.25
2023-03-10T15:43:51.001Z,98215.16
2023-03-10T15:46:19.058Z,98187.34
2023-03-10T15:48:48.250Z,98210.78
2023-03-10T15:51:18.046Z,98211.75
2023-03-10T15:53:46.343Z,98184.31
2023-03-10T15:56:15.388Z,98200.53
2023-03-10T15:58:43.528Z,98176.75
2023-03-10T16:01:16.329Z,98213.75
2023-03-10T16:03:44.629Z,98210.78
2023-03-10T16:06:13.843Z,98211.50
2023-03-10T16:08:41.770Z,98197.75
2023-03-10T16:11:17.582Z,98197.84
2023-03-10T16:13:49.248Z,98191.81
2023-03-10T16:16:21.579Z,98191.03
2023-03-10T16:18:51.140Z,98176.75
2023-03-10T16:21:21.577Z,98184.31
2023-03-10T16:23:49.791Z,98190.53
2023-03-10T16:26:19.890Z,98180.59
2023-03-10T16:28:51.941Z,98183.41
2023-03-10T16:31:23.296Z,98185.94
2023-03-10T16:33:52.104Z,98189.56
2023-03-10T16:36:21.567Z,98181.91
2023-03-10T16:38:50.469Z,98170.03
2023-03-10T16:41:18.723Z,98179.22
2023-03-10T16:43:47.429Z,98173.44
2023-03-10T16:46:17.302Z,98181.59
2023-03-10T16:48:48.800Z,98192.75
2023-03-10T16:51:24.364Z,98197.31
2023-03-10T16:53:52.998Z,98183.50
2023-03-10T16:56:21.190Z,98175.06
2023-03-10T16:58:49.145Z,98170.19
2023-03-10T17:01:17.127Z,98180.47
2023-03-10T17:03:46.398Z,98203.84
2023-03-10T17:06:17.231Z,98221.25
2023-03-10T17:08:45.200Z,98230.81
2023-03-10T17:11:20.434Z,98224.00
2023-03-10T17:13:51.571Z,98222.47
2023-03-10T17:16:23.375Z,98174.19
2023-03-10T17:18:53.808Z,98225.38
2023-03-10T17:21:23.588Z,98237.31
2023-03-10T17:23:51.579Z,98217.34
2023-03-10T17:26:20.576Z,98252.19
2023-03-10T17:28:50.887Z,98229.25
2023-03-10T17:31:23.519Z,98224.88
2023-03-10T17:33:53.240Z,98250.78
2023-03-10T17:36:21.356Z,98233.91
2023-03-10T17:38:49.282Z,98230.78
2023-03-10T17:41:17.417Z,98234.75
2023-03-10T17:43:45.416Z,98231.50
2023-03-10T17:46:15.257Z,98215.50
2023-03-10T17:48:43.339Z,98204.56
2023-03-10T17:51:15.837Z,98219.09
2023-03-10T17:53:44.092Z,98229.44
2023-03-10T17:56:12.721Z,98228.75
2023-03-10T17:58:41.124Z,98180.66
2023-03-10T18:01:10.235Z,98210.47
2023-03-10T18:03:38.548Z,98201.31
2023-03-10T18:06:20.577Z,98177.41
2023-03-10T18:08:48.701Z,98198.25
2023-03-10T18:27:12.532Z,98173.59
2023-03-10T18:29:40.528Z,98179.63
2023-03-10T18:32:08.626Z,98174.47
2023-03-10T18:34:36.627Z,98182.41
2023-03-10T18:37:04.562Z,98178.28
2023-03-10T18:39:32.577Z,98173.88
2023-03-10T18:42:00.470Z,98170.66
2023-03-10T18:44:29.845Z,98174.22
2023-03-10T18:46:57.763Z,98167.31
2023-03-10T18:49:25.715Z,98153.91
2023-03-10T18:51:53.629Z,98171.75
2023-03-10T18:54:21.560Z,98112.56
2023-03-10T18:56:54.648Z,98087.25
2023-03-10T18:59:22.579Z,98177.00
2023-03-10T19:01:52.267Z,98192.00
2023-03-10T19:04:20.462Z,98205.78
2023-03-10T19:06:48.419Z,98176.09
2023-03-10T19:09:18.981Z,98202.88
2023-03-10T19:11:48.039Z,98161.63
2023-03-10T19:14:16.030Z,98224.19
2023-03-10T19:16:45.837Z,98235.53
2023-03-10T19:19:15.085Z,98252.28
2023-03-10T19:21:43.724Z,98279.38
2023-03-10T19:24:11.918Z,98282.94
2023-03-10T19:26:39.807Z,98268.41
2023-03-10T19:29:07.728Z,98325.84
2023-03-10T19:31:35.661Z,98322.56
2023-03-10T19:34:03.578Z,98331.16
2023-03-10T19:36:32.908Z,98341.59
2023-03-10T19:39:01.117Z,98341.03
2023-03-10T19:41:29.198Z,98353.88
2023-03-10T19:43:57.129Z,98373.00
2023-03-10T19:46:25.176Z,98369.69
2023-03-10T19:48:53.252Z,98366.47
2023-03-10T19:51:23.448Z,98390.72
2023-03-10T19:53:53.253Z,98405.41
2023-03-10T19:56:22.719Z,98421.78
2023-03-10T19:58:52.527Z,98430.47
2023-03-10T20:01:24.397Z,98407.56
2023-03-10T20:03:53.703Z,98436.06
2023-03-10T20:06:22.307Z,98445.50
2023-03-10T20:08:51.525Z,98467.97
2023-03-10T20:11:20.936Z,98477.53
2023-03-10T20:13:48.937Z,98469.19
2023-03-10T20:16:18.461Z,98497.56
2023-03-10T20:18:46.831Z,98477.25
2023-03-10T20:21:15.003Z,98522.78
2023-03-10T20:23:47.420Z,98523.78
2023-03-10T20:26:16.543Z,98531.56
2023-03-10T20:28:46.163Z,98547.31
2023-03-10T20:31:17.645Z,98542.28
2023-03-10T20:33:45.896Z,98547.81
2023-03-10T20:36:15.922Z,98558.16
2023-03-10T20:38:45.029Z,98602.03
2023-03-10T20:41:17.524Z,98602.94
2023-03-10T20:43:46.996Z,98582.72
2023-03-10T20:46:17.534Z,98603.41
2023-03-10T20:48:45.991Z,98633.47
2023-03-10T20:51:15.101Z,98634.44
2023-03-10T20:53:43.353Z,98639.00
2023-03-10T20:56:14.197Z,98651.63
2023-03-10T20:58:42.199Z,98613.28
2023-03-10T21:01:17.081Z,98665.78
2023-03-10T21:03:45.159Z,98678.72
2023-03-10T21:06:13.138Z,98662.63
2023-03-10T21:08:41.041Z,98661.19
2023-03-10T21:11:08.794Z,98703.88
2023-03-10T21:13:36.919Z,98701.69
2023-03-10T21:16:05.363Z,98738.66
2023-03-10T21:18:34.869Z,98748.25
2023-03-10T21:21:06.972Z,98736.38
2023-03-10T21:23:42.140Z,98763.91
2023-03-10T21:26:11.958Z,98747.88
2023-03-10T21:28:40.651Z,98776.91
2023-03-10T21:31:08.727Z,98790.03
2023-03-10T21:33:38.279Z,98808.31
2023-03-10T21:36:06.981Z,98782.00
2023-03-10T21:38:36.475Z,98819.66
2023-03-10T21:41:06.147Z,98842.28
2023-03-10T21:43:34.144Z,98841.53
2023-03-10T21:46:02.415Z,98854.50
2023-03-10T21:48:30.493Z,98851.03
2023-03-10T21:50:59.836Z,98868.34
2023-03-10T21:53:27.804Z,98866.59
2023-03-10T21:55:55.995Z,98891.84
2023-03-10T21:58:24.914Z,98853.34
2023-03-10T22:00:55.985Z,98911.00
2023-03-10T22:03:24.083Z,98909.22
2023-03-10T22:05:52.131Z,98917.03
2023-03-10T22:08:21.948Z,98926.59
2023-03-10T22:10:50.006Z,98891.59
2023-03-10T22:13:17.954Z,98938.81
2023-03-10T22:15:46.008Z,98944.94
2023-03-10T22:18:14.038Z,98934.06
2023-03-10T22:20:42.154Z,98966.63
2023-03-10T22:23:10.511Z,98991.81
2023-03-10T22:25:40.300Z,98989.22
2023-03-10T22:28:08.187Z,98955.00
2023-03-10T22:30:36.780Z,99000.72
2023-03-10T22:33:06.839Z,98970.00
2023-03-10T22:35:35.011Z,99025.97
2023-03-10T22:38:03.094Z,99023.38
2023-03-10T22:40:31.004Z,99037.06
2023-03-10T22:43:00.672Z,99058.81
2023-03-10T22:45:30.966Z,99048.44
2023-03-10T22:48:01.197Z,99057.09
2023-03-10T22:50:32.498Z,99060.59
2023-03-10T22:53:00.808Z,99053.09
2023-03-10T22:55:34.868Z,99045.66
2023-03-10T22:58:05.744Z,99106.72
2023-03-10T23:00:34.402Z,99121.50
2023-03-10T23:03:02.542Z,99118.91
2023-03-10T23:05:30.477Z,99130.97
2023-03-10T23:07:58.688Z,99139.75
2023-03-10T23:10:28.217Z,99135.47
2023-03-10T23:12:57.060Z,99151.09
2023-03-10T23:15:29.889Z,99139.19
2023-03-10T23:17:58.315Z,99182.31
2023-03-10T23:20:28.992Z,99185.84
2023-03-10T23:22:58.627Z,99197.13
2023-03-10T23:25:29.488Z,99206.69
2023-03-10T23:27:58.055Z,99214.50
2023-03-10T23:30:27.677Z,99205.00
2023-03-10T23:32:57.374Z,99226.75
2023-03-10T23:35:27.451Z,99200.19
2023-03-10T23:37:55.777Z,99231.91
2023-03-10T23:40:27.032Z,99199.59
2023-03-10T23:42:55.260Z,99252.81
2023-03-10T23:45:24.624Z,99245.84
2023-03-10T23:47:55.480Z,99269.31
2023-03-10T23:50:26.120Z,99272.81
2023-03-10T23:52:54.533Z,99279.69
2023-03-10T23:55:24.593Z,99287.59
2023-03-10T23:57:52.562Z,99298.88
